createdAt,value
2019-05-25T00:00:55.441Z,0.00
2019-05-25T00:01:55.436Z,0.00
2019-05-25T00:02:55.456Z,0.00
2019-05-25T00:03:55.429Z,0.00
2019-05-25T00:04:55.425Z,0.00
2019-05-25T00:05:55.423Z,0.00
2019-05-25T00:06:55.417Z,0.00
2019-05-25T00:07:55.416Z,0.00
2019-05-25T00:08:55.409Z,0.00
2019-05-25T00:09:55.405Z,0.00
2019-05-25T00:10:55.394Z,0.00
2019-05-25T00:11:55.405Z,0.00
2019-05-25T00:12:55.385Z,0.00
2019-05-25T00:13:55.378Z,0.00
2019-05-25T00:14:55.380Z,0.00
2019-05-25T00:15:55.374Z,0.00
2019-05-25T00:16:55.370Z,0.00
2019-05-25T00:17:55.365Z,0.00
2019-05-25T00:18:55.359Z,0.00
2019-05-25T00:19:55.352Z,0.00
2019-05-25T00:20:55.348Z,0.00
2019-05-25T00:21:55.341Z,0.00
2019-05-25T00:22:55.341Z,0.00
2019-05-25T00:24:10.863Z,0.00
2019-05-25T00:24:55.327Z,0.00
2019-05-25T00:25:55.327Z,0.00
2019-05-25T00:26:55.319Z,0.00
2019-05-25T00:27:55.317Z,0.00
2019-05-25T00:28:55.311Z,0.00
2019-05-25T00:29:55.307Z,0.00
2019-05-25T00:30:55.302Z,0.00
2019-05-25T00:31:55.294Z,0.00
2019-05-25T00:32:55.285Z,0.00
2019-05-25T00:33:55.285Z,0.00
2019-05-25T00:34:55.282Z,0.00
2019-05-25T00:35:55.276Z,0.00
2019-05-25T00:36:55.278Z,0.00
2019-05-25T00:37:55.278Z,0.00
2019-05-25T00:38:55.306Z,0.00
2019-05-25T00:39:55.255Z,0.00
2019-05-25T00:40:55.249Z,0.00
2019-05-25T00:41:55.246Z,0.00
2019-05-25T00:42:55.237Z,0.00
2019-05-25T00:43:55.233Z,0.00
2019-05-25T00:44:55.225Z,0.00
2019-05-25T00:45:55.217Z,0.00
2019-05-25T00:46:55.227Z,0.00
2019-05-25T00:47:55.215Z,0.00
2019-05-25T00:48:55.208Z,0.00
2019-05-25T00:49:55.206Z,0.00
2019-05-25T00:50:55.195Z,0.00
2019-05-25T00:51:55.192Z,0.00
2019-05-25T00:52:55.185Z,0.00
2019-05-25T00:53:55.176Z,0.00
2019-05-25T00:54:55.207Z,0.00
2019-05-25T00:55:55.176Z,0.00
2019-05-25T00:56:55.166Z,0.00
2019-05-25T00:57:55.160Z,0.00
2019-05-25T00:58:55.160Z,0.00
2019-05-25T00:59:55.155Z,0.00
2019-05-25T01:00:55.165Z,0.00
2019-05-25T01:01:55.143Z,0.00
2019-05-25T01:02:55.130Z,0.00
2019-05-25T01:03:55.128Z,0.00
2019-05-25T01:04:55.121Z,0.00
2019-05-25T01:05:55.128Z,0.00
2019-05-25T01:06:55.122Z,0.00
2019-05-25T01:07:55.112Z,0.00
2019-05-25T01:08:55.104Z,0.00
2019-05-25T01:09:55.101Z,0.00
2019-05-25T01:10:55.092Z,0.00
2019-05-25T01:11:55.088Z,0.00
2019-05-25T01:12:55.084Z,0.00
2019-05-25T01:13:55.081Z,0.00
2019-05-25T01:14:55.071Z,0.00
2019-05-25T01:15:55.056Z,0.00
2019-05-25T01:16:55.078Z,0.00
2019-05-25T01:17:55.057Z,0.00
2019-05-25T01:18:55.052Z,0.00
2019-05-25T01:19:55.045Z,0.00
2019-05-25T01:20:55.040Z,0.00
2019-05-25T01:21:55.046Z,0.00
2019-05-25T01:22:55.027Z,0.00
2019-05-25T01:23:55.021Z,0.00
2019-05-25T01:24:55.017Z,0.00
2019-05-25T01:25:55.008Z,0.00
2019-05-25T01:26:55.033Z,0.00
2019-05-25T01:27:55.003Z,0.00
2019-05-25T01:28:54.996Z,0.00
2019-05-25T01:29:54.982Z,0.00
2019-05-25T01:30:54.988Z,0.00
2019-05-25T01:31:54.988Z,0.00
2019-05-25T01:32:54.971Z,0.00
2019-05-25T01:33:54.968Z,0.00
2019-05-25T01:34:54.989Z,0.00
2019-05-25T01:35:54.954Z,0.00
2019-05-25T01:36:54.957Z,0.00
2019-05-25T01:37:54.939Z,0.00
2019-05-25T01:38:54.941Z,0.00
2019-05-25T01:39:54.935Z,0.00
2019-05-25T01:40:54.949Z,0.00
2019-05-25T01:41:54.929Z,0.00
2019-05-25T01:42:54.926Z,0.00
2019-05-25T01:43:54.910Z,0.00
2019-05-25T01:44:54.907Z,0.00
2019-05-25T01:45:54.917Z,0.00
2019-05-25T01:46:54.895Z,0.00
2019-05-25T01:47:54.888Z,0.00
2019-05-25T01:48:54.881Z,0.00
2019-05-25T01:49:54.880Z,0.00
2019-05-25T01:50:54.876Z,0.00
2019-05-25T01:51:54.866Z,0.00
2019-05-25T01:52:54.870Z,0.00
2019-05-25T01:53:54.860Z,0.00
2019-05-25T01:54:59.868Z,0.00
2019-05-25T01:55:54.842Z,0.00
2019-05-25T01:56:54.843Z,0.00
2019-05-25T01:57:54.854Z,0.00
2019-05-25T01:58:54.831Z,0.00
2019-05-25T01:59:54.826Z,0.00
2019-05-25T02:00:54.837Z,0.00
2019-05-25T02:01:54.810Z,0.00
2019-05-25T02:02:54.808Z,0.00
2019-05-25T02:03:54.815Z,0.00
2019-05-25T02:04:54.796Z,0.00
2019-05-25T02:05:54.792Z,0.00
2019-05-25T02:06:54.788Z,0.00
2019-05-25T02:07:54.777Z,0.00
2019-05-25T02:08:54.794Z,0.00
2019-05-25T02:09:54.763Z,0.00
2019-05-25T02:10:54.763Z,0.00
2019-05-25T02:11:54.758Z,0.00
2019-05-25T02:12:54.751Z,0.00
2019-05-25T02:13:54.760Z,0.00
2019-05-25T02:14:54.735Z,0.00
2019-05-25T02:15:54.798Z,0.00
2019-05-25T02:16:54.727Z,0.00
2019-05-25T02:17:54.720Z,0.00
2019-05-25T02:18:54.712Z,0.00
2019-05-25T02:19:54.704Z,0.00
2019-05-25T02:20:54.696Z,0.00
2019-05-25T02:21:54.695Z,0.00
2019-05-25T02:22:54.691Z,0.00
2019-05-25T02:23:54.689Z,0.00
2019-05-25T02:24:54.673Z,0.00
2019-05-25T02:25:54.683Z,0.00
2019-05-25T02:26:54.665Z,0.00
2019-05-25T02:27:54.659Z,0.00
2019-05-25T02:28:54.651Z,0.00
2019-05-25T02:29:54.645Z,0.00
2019-05-25T02:30:54.645Z,0.00
2019-05-25T02:31:54.636Z,0.00
2019-05-25T02:32:54.624Z,0.00
2019-05-25T02:33:54.625Z,0.00
2019-05-25T02:34:54.624Z,0.00
2019-05-25T02:35:54.618Z,0.00
2019-05-25T02:36:54.616Z,0.00
2019-05-25T02:37:54.604Z,0.00
2019-05-25T02:38:54.591Z,0.00
2019-05-25T02:39:54.587Z,0.00
2019-05-25T02:40:54.573Z,0.00
2019-05-25T02:41:54.570Z,0.00
2019-05-25T02:42:54.589Z,0.00
2019-05-25T02:43:54.562Z,0.00
2019-05-25T02:44:54.555Z,0.00
2019-05-25T02:45:54.555Z,0.00
2019-05-25T02:46:54.544Z,0.00
2019-05-25T02:47:54.534Z,0.00
2019-05-25T02:48:54.532Z,0.00
2019-05-25T02:49:54.525Z,0.00
2019-05-25T02:50:54.523Z,0.00
2019-05-25T02:51:54.511Z,0.00
2019-05-25T02:52:54.499Z,0.00
2019-05-25T02:53:54.498Z,0.00
2019-05-25T02:54:54.492Z,0.00
2019-05-25T02:55:54.487Z,0.00
2019-05-25T02:56:54.481Z,0.00
2019-05-25T02:57:54.491Z,0.00
2019-05-25T02:58:54.466Z,0.00
2019-05-25T02:59:54.460Z,0.00
2019-05-25T03:00:54.451Z,0.00
2019-05-25T03:01:54.446Z,0.00
2019-05-25T03:02:54.447Z,0.00
2019-05-25T03:03:54.436Z,0.00
2019-05-25T03:04:54.427Z,0.00
2019-05-25T03:05:54.420Z,0.00
2019-05-25T03:06:54.418Z,0.00
2019-05-25T03:07:54.411Z,0.00
2019-05-25T03:08:54.405Z,0.00
2019-05-25T03:09:54.398Z,0.00
2019-05-25T03:10:54.392Z,0.00
2019-05-25T03:11:54.383Z,0.00
2019-05-25T03:12:54.376Z,0.00
2019-05-25T03:13:54.366Z,0.00
2019-05-25T03:14:54.368Z,0.00
2019-05-25T03:15:54.358Z,0.00
2019-05-25T03:16:54.355Z,0.00
2019-05-25T03:17:54.348Z,0.00
2019-05-25T03:18:54.338Z,0.00
2019-05-25T03:19:54.351Z,0.00
2019-05-25T03:20:54.326Z,0.00
2019-05-25T03:21:54.323Z,0.00
2019-05-25T03:22:54.311Z,0.00
2019-05-25T03:23:54.306Z,0.00
2019-05-25T03:24:54.302Z,0.00
2019-05-25T03:25:54.292Z,0.00
2019-05-25T03:26:54.289Z,0.00
2019-05-25T03:27:54.283Z,0.00
2019-05-25T03:28:54.285Z,0.00
2019-05-25T03:29:54.270Z,0.00
2019-05-25T03:30:54.261Z,0.00
2019-05-25T03:31:54.254Z,0.00
2019-05-25T03:32:54.249Z,0.00
2019-05-25T03:33:54.240Z,5.63
2019-05-25T03:34:54.246Z,5.63
2019-05-25T03:35:54.223Z,5.63
2019-05-25T03:36:54.225Z,5.63
2019-05-25T03:37:54.216Z,5.63
2019-05-25T03:38:54.211Z,5.63
2019-05-25T03:39:54.205Z,5.63
2019-05-25T03:40:54.202Z,5.63
2019-05-25T03:41:54.194Z,5.63
2019-05-25T03:42:54.179Z,5.63
2019-05-25T03:43:54.175Z,5.63
2019-05-25T03:44:54.171Z,5.63
2019-05-25T03:45:54.164Z,11.25
2019-05-25T03:46:54.163Z,11.25
2019-05-25T03:47:54.154Z,11.25
2019-05-25T03:48:54.148Z,11.25
2019-05-25T03:49:54.140Z,11.25
2019-05-25T03:50:54.132Z,11.25
2019-05-25T03:51:54.131Z,11.25
2019-05-25T03:52:54.120Z,11.25
2019-05-25T03:53:54.117Z,16.88
2019-05-25T03:54:54.114Z,16.88
2019-05-25T03:56:05.155Z,16.88
2019-05-25T03:56:54.092Z,16.88
2019-05-25T03:57:54.078Z,16.88
2019-05-25T03:58:54.088Z,16.88
2019-05-25T03:59:54.086Z,16.88
2019-05-25T04:00:54.075Z,16.88
2019-05-25T04:01:54.064Z,22.50
2019-05-25T04:02:54.060Z,22.50
2019-05-25T04:03:54.048Z,22.50
2019-05-25T04:04:54.044Z,22.50
2019-05-25T04:05:54.050Z,22.50
2019-05-25T04:06:54.032Z,22.50
2019-05-25T04:07:54.026Z,22.50
2019-05-25T04:08:54.013Z,22.50
2019-05-25T04:09:54.016Z,22.50
2019-05-25T04:10:54.020Z,22.50
2019-05-25T04:11:54.003Z,28.13
2019-05-25T04:12:54.020Z,28.13
2019-05-25T04:13:53.986Z,28.13
2019-05-25T04:14:53.986Z,28.13
2019-05-25T04:15:53.975Z,28.13
2019-05-25T04:16:53.989Z,28.13
2019-05-25T04:17:53.958Z,28.13
2019-05-25T04:18:53.955Z,33.75
2019-05-25T04:19:53.954Z,33.75
2019-05-25T04:20:53.950Z,33.75
2019-05-25T04:21:53.939Z,33.75
2019-05-25T04:22:53.927Z,33.75
2019-05-25T04:23:53.922Z,33.75
2019-05-25T04:24:53.917Z,39.38
2019-05-25T04:25:53.920Z,39.38
2019-05-25T04:26:53.903Z,45.00
2019-05-25T04:27:53.895Z,45.00
2019-05-25T04:28:53.887Z,45.00
2019-05-25T04:29:53.883Z,45.00
2019-05-25T04:30:53.889Z,45.00
2019-05-25T04:31:53.873Z,50.63
2019-05-25T04:32:53.867Z,50.63
2019-05-25T04:33:53.859Z,50.63
2019-05-25T04:34:53.869Z,50.63
2019-05-25T04:35:53.848Z,56.25
2019-05-25T04:36:53.842Z,56.25
2019-05-25T04:37:53.837Z,56.25
2019-05-25T04:38:53.833Z,56.25
2019-05-25T04:39:53.886Z,61.88
2019-05-25T04:40:53.816Z,61.88
2019-05-25T04:41:53.817Z,61.88
2019-05-25T04:42:53.835Z,73.13
2019-05-25T04:43:53.817Z,78.75
2019-05-25T04:44:53.790Z,73.13
2019-05-25T04:45:53.801Z,67.50
2019-05-25T04:46:53.777Z,67.50
2019-05-25T04:47:53.764Z,67.50
2019-05-25T04:48:53.766Z,73.13
2019-05-25T04:49:53.761Z,73.13
2019-05-25T04:50:53.755Z,73.13
2019-05-25T04:51:53.749Z,78.75
2019-05-25T04:52:53.742Z,95.63
2019-05-25T04:53:53.748Z,101.25
2019-05-25T04:54:53.734Z,95.63
2019-05-25T04:55:53.721Z,101.25
2019-05-25T04:56:53.724Z,90.00
2019-05-25T04:57:53.737Z,90.00
2019-05-25T04:58:53.705Z,90.00
2019-05-25T04:59:53.729Z,95.63
2019-05-25T05:00:53.703Z,123.75
2019-05-25T05:01:53.686Z,112.50
2019-05-25T05:02:53.689Z,101.25
2019-05-25T05:03:53.680Z,95.63
2019-05-25T05:04:53.688Z,101.25
2019-05-25T05:05:53.667Z,106.88
2019-05-25T05:06:53.673Z,112.50
2019-05-25T05:07:53.659Z,118.13
2019-05-25T05:08:53.648Z,123.75
2019-05-25T05:10:02.286Z,140.63
2019-05-25T05:10:53.640Z,157.50
2019-05-25T05:11:53.627Z,140.63
2019-05-25T05:12:53.628Z,140.63
2019-05-25T05:13:53.618Z,146.25
2019-05-25T05:14:56.445Z,140.63
2019-05-25T05:15:53.612Z,146.25
2019-05-25T05:16:53.609Z,163.13
2019-05-25T05:17:53.600Z,208.13
2019-05-25T05:18:53.596Z,298.13
2019-05-25T05:19:53.588Z,388.13
2019-05-25T05:20:53.585Z,410.63
2019-05-25T05:21:53.579Z,421.88
2019-05-25T05:22:53.577Z,438.75
2019-05-25T05:23:53.593Z,455.63
2019-05-25T05:24:53.570Z,478.13
2019-05-25T05:25:53.565Z,517.50
2019-05-25T05:26:56.193Z,551.25
2019-05-25T05:27:53.555Z,601.88
2019-05-25T05:28:53.552Z,669.38
2019-05-25T05:29:54.368Z,753.75
2019-05-25T05:30:53.541Z,815.63
2019-05-25T05:31:53.558Z,877.50
2019-05-25T05:32:53.543Z,950.63
2019-05-25T05:33:53.538Z,1006.88
2019-05-25T05:34:53.541Z,1001.25
2019-05-25T05:35:53.546Z,506.25
2019-05-25T05:36:53.541Z,360.00
2019-05-25T05:37:53.537Z,281.25
2019-05-25T05:38:53.540Z,573.75
2019-05-25T05:39:53.532Z,354.38
2019-05-25T05:40:53.532Z,371.25
2019-05-25T05:41:53.535Z,461.25
2019-05-25T05:42:53.545Z,528.75
2019-05-25T05:43:54.379Z,444.38
2019-05-25T05:44:53.546Z,506.25
2019-05-25T05:45:53.551Z,517.50
2019-05-25T05:46:53.531Z,500.63
2019-05-25T05:47:53.539Z,483.75
2019-05-25T05:48:53.539Z,472.50
2019-05-25T05:49:53.568Z,461.25
2019-05-25T05:50:53.540Z,461.25
2019-05-25T05:51:53.538Z,466.88
2019-05-25T05:52:53.536Z,461.25
2019-05-25T05:53:53.537Z,461.25
2019-05-25T05:54:53.547Z,472.50
2019-05-25T05:55:53.550Z,472.50
2019-05-25T05:56:53.549Z,472.50
2019-05-25T05:57:53.550Z,483.75
2019-05-25T05:58:53.551Z,483.75
2019-05-25T05:59:53.551Z,483.75
2019-05-25T06:00:53.561Z,478.13
2019-05-25T06:01:53.563Z,472.50
2019-05-25T06:02:53.570Z,478.13
2019-05-25T06:03:53.559Z,472.50
2019-05-25T06:04:53.566Z,466.88
2019-05-25T06:05:53.569Z,489.38
2019-05-25T06:06:53.580Z,489.38
2019-05-25T06:07:53.579Z,506.25
2019-05-25T06:08:53.582Z,506.25
2019-05-25T06:09:53.585Z,500.63
2019-05-25T06:10:53.591Z,523.13
2019-05-25T06:11:53.590Z,523.13
2019-05-25T06:12:53.594Z,540.00
2019-05-25T06:13:53.604Z,540.00
2019-05-25T06:14:53.605Z,545.63
2019-05-25T06:15:55.937Z,551.25
2019-05-25T06:16:53.611Z,551.25
2019-05-25T06:17:53.616Z,562.50
2019-05-25T06:18:53.624Z,568.13
2019-05-25T06:19:53.630Z,579.38
2019-05-25T06:20:53.640Z,596.25
2019-05-25T06:21:53.633Z,613.13
2019-05-25T06:22:53.641Z,624.38
2019-05-25T06:23:53.644Z,624.38
2019-05-25T06:24:53.650Z,652.50
2019-05-25T06:25:53.658Z,663.75
2019-05-25T06:26:53.666Z,720.00
2019-05-25T06:27:53.672Z,838.13
2019-05-25T06:28:53.680Z,933.75
2019-05-25T06:29:53.682Z,939.38
2019-05-25T06:30:53.680Z,961.88
2019-05-25T06:31:53.687Z,1012.50
2019-05-25T06:32:53.705Z,1051.88
2019-05-25T06:33:53.705Z,1080.00
2019-05-25T06:34:53.705Z,1102.50
2019-05-25T06:35:53.712Z,1125.00
2019-05-25T06:36:53.718Z,1158.75
2019-05-25T06:37:53.726Z,1209.38
2019-05-25T06:38:53.733Z,1231.88
2019-05-25T06:39:53.739Z,1254.38
2019-05-25T06:40:53.748Z,1282.50
2019-05-25T06:41:53.751Z,1299.38
2019-05-25T06:42:53.756Z,1288.13
2019-05-25T06:43:53.755Z,1299.38
2019-05-25T06:44:53.778Z,1333.13
2019-05-25T06:45:53.774Z,1417.50
2019-05-25T06:46:53.791Z,1395.00
2019-05-25T06:47:53.790Z,534.38
2019-05-25T06:48:53.797Z,444.38
2019-05-25T06:49:53.803Z,427.50
2019-05-25T06:50:53.815Z,483.75
2019-05-25T06:51:53.821Z,540.00
2019-05-25T06:52:57.620Z,590.63
2019-05-25T06:53:53.836Z,455.63
2019-05-25T06:54:53.846Z,838.13
2019-05-25T06:55:53.846Z,500.63
2019-05-25T06:56:53.867Z,286.88
2019-05-25T06:57:53.857Z,658.13
2019-05-25T06:58:53.868Z,630.00
2019-05-25T06:59:53.873Z,967.50
2019-05-25T07:00:53.880Z,1119.38
2019-05-25T07:01:53.890Z,1366.88
2019-05-25T07:02:53.890Z,1305.00
2019-05-25T07:03:53.893Z,618.75
2019-05-25T07:04:53.902Z,1378.13
2019-05-25T07:05:53.909Z,1186.88
2019-05-25T07:06:53.910Z,1417.50
2019-05-25T07:07:54.676Z,1378.13
2019-05-25T07:08:53.920Z,1366.88
2019-05-25T07:09:53.927Z,1372.50
2019-05-25T07:10:53.940Z,1428.75
2019-05-25T07:11:53.942Z,1485.00
2019-05-25T07:12:54.015Z,1501.88
2019-05-25T07:13:53.955Z,1524.38
2019-05-25T07:14:53.960Z,1530.00
2019-05-25T07:15:53.965Z,1552.50
2019-05-25T07:16:53.971Z,1220.63
2019-05-25T07:17:53.976Z,855.00
2019-05-25T07:18:53.988Z,1209.38
2019-05-25T07:19:53.992Z,945.00
2019-05-25T07:20:53.998Z,1265.63
2019-05-25T07:21:54.008Z,905.63
2019-05-25T07:22:54.015Z,1586.25
2019-05-25T07:23:54.022Z,1665.00
2019-05-25T07:24:54.026Z,1698.75
2019-05-25T07:25:54.032Z,1648.13
2019-05-25T07:26:54.036Z,1878.75
2019-05-25T07:27:59.769Z,1018.13
2019-05-25T07:28:54.059Z,714.38
2019-05-25T07:29:54.059Z,618.75
2019-05-25T07:30:54.062Z,855.00
2019-05-25T07:31:54.078Z,736.88
2019-05-25T07:32:54.087Z,489.38
2019-05-25T07:33:54.097Z,534.38
2019-05-25T07:34:54.094Z,528.75
2019-05-25T07:35:54.100Z,1620.00
2019-05-25T07:36:54.113Z,1771.88
2019-05-25T07:37:54.116Z,973.13
2019-05-25T07:38:54.119Z,804.38
2019-05-25T07:39:54.126Z,1653.75
2019-05-25T07:40:54.133Z,1136.25
2019-05-25T07:41:54.139Z,1732.50
2019-05-25T07:42:54.148Z,1170.00
2019-05-25T07:43:54.144Z,680.63
2019-05-25T07:44:54.165Z,466.88
2019-05-25T07:45:54.176Z,528.75
2019-05-25T07:46:54.171Z,568.13
2019-05-25T07:47:54.179Z,1220.63
2019-05-25T07:48:54.186Z,1029.38
2019-05-25T07:49:54.190Z,573.75
2019-05-25T07:50:54.203Z,1068.75
2019-05-25T07:51:54.206Z,1096.88
2019-05-25T07:52:54.210Z,1215.00
2019-05-25T07:53:54.215Z,748.13
2019-05-25T07:54:54.225Z,556.88
2019-05-25T07:55:54.232Z,506.25
2019-05-25T07:56:54.236Z,444.38
2019-05-25T07:57:54.243Z,427.50
2019-05-25T07:58:54.245Z,421.88
2019-05-25T07:59:54.254Z,410.63
2019-05-25T08:00:54.264Z,416.25
2019-05-25T08:01:54.271Z,427.50
2019-05-25T08:02:54.281Z,348.75
2019-05-25T08:03:54.281Z,292.50
2019-05-25T08:04:54.283Z,270.00
2019-05-25T08:05:54.290Z,292.50
2019-05-25T08:06:54.381Z,303.75
2019-05-25T08:07:54.293Z,320.63
2019-05-25T08:08:54.304Z,433.13
2019-05-25T08:09:54.310Z,461.25
2019-05-25T08:10:54.320Z,483.75
2019-05-25T08:11:54.314Z,472.50
2019-05-25T08:12:54.323Z,450.00
2019-05-25T08:13:54.325Z,399.38
2019-05-25T08:14:54.325Z,360.00
2019-05-25T08:15:54.348Z,360.00
2019-05-25T08:16:54.389Z,326.25
2019-05-25T08:17:54.357Z,326.25
2019-05-25T08:18:54.350Z,348.75
2019-05-25T08:19:54.358Z,348.75
2019-05-25T08:20:54.374Z,360.00
2019-05-25T08:21:54.357Z,348.75
2019-05-25T08:22:54.370Z,337.50
2019-05-25T08:23:54.368Z,337.50
2019-05-25T08:24:54.380Z,315.00
2019-05-25T08:25:54.379Z,281.25
2019-05-25T08:26:54.390Z,264.38
2019-05-25T08:27:54.393Z,275.63
2019-05-25T08:28:54.398Z,292.50
2019-05-25T08:29:54.398Z,309.38
2019-05-25T08:30:54.394Z,354.38
2019-05-25T08:31:54.410Z,371.25
2019-05-25T08:32:54.402Z,376.88
2019-05-25T08:33:54.410Z,371.25
2019-05-25T08:34:54.417Z,343.13
2019-05-25T08:35:54.419Z,382.50
2019-05-25T08:36:54.431Z,416.25
2019-05-25T08:37:54.426Z,376.88
2019-05-25T08:38:55.031Z,275.63
2019-05-25T08:39:54.434Z,292.50
2019-05-25T08:40:54.445Z,337.50
2019-05-25T08:41:54.444Z,331.88
2019-05-25T08:42:54.447Z,371.25
2019-05-25T08:43:54.468Z,371.25
2019-05-25T08:44:54.452Z,343.13
2019-05-25T08:45:54.455Z,331.88
2019-05-25T08:46:55.564Z,360.00
2019-05-25T08:47:57.106Z,365.63
2019-05-25T08:48:54.471Z,382.50
2019-05-25T08:49:54.473Z,405.00
2019-05-25T08:50:54.473Z,466.88
2019-05-25T08:51:55.135Z,461.25
2019-05-25T08:52:54.489Z,388.13
2019-05-25T08:53:54.485Z,365.63
2019-05-25T08:54:56.708Z,303.75
2019-05-25T08:55:54.497Z,236.25
2019-05-25T08:56:54.496Z,225.00
2019-05-25T08:57:54.498Z,225.00
2019-05-25T08:58:55.651Z,230.63
2019-05-25T08:59:54.511Z,247.50
2019-05-25T09:00:54.513Z,264.38
2019-05-25T09:01:54.520Z,286.88
2019-05-25T09:02:54.517Z,315.00
2019-05-25T09:03:54.528Z,360.00
2019-05-25T09:04:54.526Z,410.63
2019-05-25T09:05:54.545Z,466.88
2019-05-25T09:06:54.542Z,399.38
2019-05-25T09:07:54.538Z,331.88
2019-05-25T09:08:54.540Z,315.00
2019-05-25T09:09:54.545Z,360.00
2019-05-25T09:10:54.546Z,371.25
2019-05-25T09:11:54.547Z,399.38
2019-05-25T09:12:54.554Z,348.75
2019-05-25T09:13:54.555Z,343.13
2019-05-25T09:14:54.555Z,376.88
2019-05-25T09:15:54.560Z,371.25
2019-05-25T09:16:54.563Z,331.88
2019-05-25T09:17:54.571Z,343.13
2019-05-25T09:18:54.571Z,348.75
2019-05-25T09:19:54.572Z,365.63
2019-05-25T09:20:54.576Z,382.50
2019-05-25T09:22:02.426Z,382.50
2019-05-25T09:22:54.577Z,376.88
2019-05-25T09:23:54.578Z,354.38
2019-05-25T09:24:54.582Z,309.38
2019-05-25T09:25:54.599Z,309.38
2019-05-25T09:26:54.587Z,315.00
2019-05-25T09:27:54.595Z,331.88
2019-05-25T09:29:04.007Z,343.13
2019-05-25T09:29:54.597Z,360.00
2019-05-25T09:30:54.607Z,393.75
2019-05-25T09:31:54.606Z,405.00
2019-05-25T09:32:54.608Z,405.00
2019-05-25T09:33:54.618Z,393.75
2019-05-25T09:34:54.610Z,399.38
2019-05-25T09:35:54.611Z,365.63
2019-05-25T09:36:54.616Z,343.13
2019-05-25T09:37:54.619Z,326.25
2019-05-25T09:38:54.640Z,331.88
2019-05-25T09:39:54.626Z,331.88
2019-05-25T09:40:54.629Z,320.63
2019-05-25T09:41:54.631Z,337.50
2019-05-25T09:42:54.665Z,354.38
2019-05-25T09:43:54.631Z,360.00
2019-05-25T09:44:54.631Z,343.13
2019-05-25T09:45:54.639Z,337.50
2019-05-25T09:46:54.638Z,315.00
2019-05-25T09:47:54.637Z,286.88
2019-05-25T09:48:54.642Z,281.25
2019-05-25T09:49:54.651Z,270.00
2019-05-25T09:50:54.659Z,275.63
2019-05-25T09:51:54.653Z,281.25
2019-05-25T09:52:54.656Z,292.50
2019-05-25T09:53:54.657Z,286.88
2019-05-25T09:54:55.694Z,281.25
2019-05-25T09:55:54.661Z,264.38
2019-05-25T09:56:54.663Z,236.25
2019-05-25T09:57:54.661Z,236.25
2019-05-25T09:58:54.668Z,241.88
2019-05-25T09:59:54.671Z,241.88
2019-05-25T10:00:54.667Z,247.50
2019-05-25T10:01:54.673Z,258.75
2019-05-25T10:02:54.689Z,258.75
2019-05-25T10:03:56.642Z,270.00
2019-05-25T10:04:54.678Z,286.88
2019-05-25T10:05:54.691Z,281.25
2019-05-25T10:06:54.719Z,258.75
2019-05-25T10:07:54.682Z,241.88
2019-05-25T10:08:54.680Z,270.00
2019-05-25T10:09:54.685Z,281.25
2019-05-25T10:10:54.693Z,230.63
2019-05-25T10:11:54.690Z,230.63
2019-05-25T10:12:54.692Z,236.25
2019-05-25T10:13:54.700Z,247.50
2019-05-25T10:14:54.698Z,236.25
2019-05-25T10:15:54.698Z,225.00
2019-05-25T10:16:54.697Z,241.88
2019-05-25T10:17:54.700Z,247.50
2019-05-25T10:18:54.697Z,253.13
2019-05-25T10:19:54.697Z,264.38
2019-05-25T10:20:54.701Z,270.00
2019-05-25T10:21:54.708Z,286.88
2019-05-25T10:22:54.706Z,270.00
2019-05-25T10:23:54.706Z,275.63
2019-05-25T10:24:54.711Z,281.25
2019-05-25T10:25:54.706Z,298.13
2019-05-25T10:26:54.706Z,320.63
2019-05-25T10:27:54.706Z,331.88
2019-05-25T10:28:54.711Z,326.25
2019-05-25T10:29:54.712Z,309.38
2019-05-25T10:30:54.719Z,303.75
2019-05-25T10:31:54.720Z,298.13
2019-05-25T10:32:54.716Z,264.38
2019-05-25T10:33:54.720Z,264.38
2019-05-25T10:34:54.722Z,270.00
2019-05-25T10:35:54.724Z,275.63
2019-05-25T10:36:54.727Z,281.25
2019-05-25T10:37:54.731Z,292.50
2019-05-25T10:38:54.725Z,315.00
2019-05-25T10:39:54.739Z,309.38
2019-05-25T10:40:58.265Z,292.50
2019-05-25T10:41:54.742Z,275.63
2019-05-25T10:42:54.739Z,264.38
2019-05-25T10:43:54.730Z,253.13
2019-05-25T10:44:54.740Z,241.88
2019-05-25T10:45:54.741Z,236.25
2019-05-25T10:46:54.747Z,236.25
2019-05-25T10:47:54.751Z,236.25
2019-05-25T10:48:54.744Z,230.63
2019-05-25T10:49:54.784Z,225.00
2019-05-25T10:50:54.753Z,225.00
2019-05-25T10:51:54.745Z,219.38
2019-05-25T10:52:54.745Z,208.13
2019-05-25T10:53:54.752Z,196.88
2019-05-25T10:54:54.757Z,185.63
2019-05-25T10:55:54.767Z,180.00
2019-05-25T10:56:54.923Z,180.00
2019-05-25T10:57:54.791Z,180.00
2019-05-25T10:58:54.769Z,174.38
2019-05-25T10:59:54.780Z,180.00
2019-05-25T11:00:54.768Z,185.63
2019-05-25T11:01:54.776Z,191.25
2019-05-25T11:02:54.773Z,185.63
2019-05-25T11:03:54.783Z,180.00
2019-05-25T11:04:56.091Z,180.00
2019-05-25T11:05:54.768Z,180.00
2019-05-25T11:06:54.774Z,180.00
2019-05-25T11:07:54.799Z,180.00
2019-05-25T11:08:54.781Z,180.00
2019-05-25T11:09:54.782Z,180.00
2019-05-25T11:10:54.822Z,180.00
2019-05-25T11:11:54.792Z,174.38
2019-05-25T11:12:54.773Z,180.00
2019-05-25T11:13:54.790Z,185.63
2019-05-25T11:14:54.786Z,185.63
2019-05-25T11:15:54.778Z,202.50
2019-05-25T11:16:54.800Z,202.50
2019-05-25T11:17:54.784Z,219.38
2019-05-25T11:18:54.799Z,219.38
2019-05-25T11:19:54.793Z,219.38
2019-05-25T11:20:54.787Z,208.13
2019-05-25T11:21:54.788Z,202.50
2019-05-25T11:22:54.796Z,202.50
2019-05-25T11:23:54.780Z,202.50
2019-05-25T11:24:54.793Z,202.50
2019-05-25T11:25:54.784Z,213.75
2019-05-25T11:26:54.819Z,230.63
2019-05-25T11:27:54.801Z,236.25
2019-05-25T11:28:54.800Z,236.25
2019-05-25T11:30:07.949Z,247.50
2019-05-25T11:30:54.798Z,247.50
2019-05-25T11:31:58.987Z,241.88
2019-05-25T11:32:54.786Z,219.38
2019-05-25T11:33:54.799Z,219.38
2019-05-25T11:34:54.800Z,219.38
2019-05-25T11:35:54.795Z,208.13
2019-05-25T11:36:54.803Z,213.75
2019-05-25T11:37:54.804Z,213.75
2019-05-25T11:38:54.802Z,213.75
2019-05-25T11:39:54.802Z,202.50
2019-05-25T11:40:54.802Z,191.25
2019-05-25T11:41:54.802Z,180.00
2019-05-25T11:42:54.800Z,180.00
2019-05-25T11:43:54.807Z,174.38
2019-05-25T11:44:55.621Z,163.13
2019-05-25T11:45:54.810Z,157.50
2019-05-25T11:46:54.818Z,157.50
2019-05-25T11:47:54.811Z,151.88
2019-05-25T11:48:54.810Z,151.88
2019-05-25T11:49:54.811Z,151.88
2019-05-25T11:50:54.815Z,157.50
2019-05-25T11:51:54.812Z,157.50
2019-05-25T11:52:54.818Z,163.13
2019-05-25T11:53:54.815Z,163.13
2019-05-25T11:54:54.818Z,163.13
2019-05-25T11:55:54.819Z,163.13
2019-05-25T11:56:55.633Z,163.13
2019-05-25T11:57:54.830Z,163.13
2019-05-25T11:58:54.821Z,163.13
2019-05-25T11:59:54.814Z,163.13
2019-05-25T12:00:54.813Z,157.50
2019-05-25T12:01:54.830Z,163.13
2019-05-25T12:02:54.828Z,174.38
2019-05-25T12:03:54.817Z,180.00
2019-05-25T12:04:54.818Z,191.25
2019-05-25T12:05:54.823Z,202.50
2019-05-25T12:06:55.639Z,208.13
2019-05-25T12:07:54.822Z,225.00
2019-05-25T12:08:54.821Z,236.25
2019-05-25T12:09:54.839Z,230.63
2019-05-25T12:10:54.827Z,225.00
2019-05-25T12:11:54.825Z,191.25
2019-05-25T12:12:54.825Z,180.00
2019-05-25T12:13:54.820Z,174.38
2019-05-25T12:14:54.823Z,180.00
2019-05-25T12:15:54.828Z,185.63
2019-05-25T12:16:54.828Z,180.00
2019-05-25T12:17:54.882Z,163.13
2019-05-25T12:18:54.839Z,151.88
2019-05-25T12:19:54.840Z,157.50
2019-05-25T12:20:54.838Z,157.50
2019-05-25T12:21:54.849Z,163.13
2019-05-25T12:22:54.837Z,163.13
2019-05-25T12:23:54.834Z,180.00
2019-05-25T12:24:54.840Z,185.63
2019-05-25T12:25:54.838Z,180.00
2019-05-25T12:26:54.840Z,163.13
2019-05-25T12:27:54.838Z,157.50
2019-05-25T12:28:54.839Z,146.25
2019-05-25T12:29:54.836Z,140.63
2019-05-25T12:30:54.877Z,129.38
2019-05-25T12:32:03.720Z,123.75
2019-05-25T12:32:54.899Z,118.13
2019-05-25T12:33:54.850Z,118.13
2019-05-25T12:34:54.842Z,118.13
2019-05-25T12:35:54.848Z,129.38
2019-05-25T12:36:54.836Z,135.00
2019-05-25T12:37:54.853Z,129.38
2019-05-25T12:38:54.908Z,123.75
2019-05-25T12:39:54.858Z,123.75
2019-05-25T12:40:55.183Z,123.75
2019-05-25T12:41:54.844Z,129.38
2019-05-25T12:42:54.841Z,135.00
2019-05-25T12:43:55.291Z,135.00